Time;durP1;ratioP1;P1;durP2;ratioP2;P2;SDS_P1;SDS_P2;PMS_P1;PMS_P2;Temp;Humidity;BMP_temperature;BMP_pressure;BME280_temperature;BME280_humidity;BME280_pressure;Samples;Min_cycle;Max_cycle;Signal;HPM_P1;HPM_P2
2022/06/16 00:00:00;;;;;;;6.67;4.07;;;;;;;16.79;68.96;101637.63;172692;28;912;-67
2022/06/16 00:00:17;;;;;;;6.07;3.95;;;;;;;16.79;69.63;101642.03;172675;28;852;-67
2022/06/16 00:00:23;;;;;;;5.75;3.90;;;;;;;16.80;69.18;101633.22;172609;28;1224;-67
2022/06/16 00:00:32;;;;;;;5.65;4.03;;;;;;;16.84;69.44;101645.28;171883;28;1059;-67
2022/06/16 00:00:38;;;;;;;5.67;4.18;;;;;;;16.85;68.93;101636.44;172023;28;1036;-67
2022/06/16 00:00:44;;;;;;;6.06;4.30;;;;;;;16.85;68.96;101637.28;171966;28;955;-67
2022/06/16 00:00:49;;;;;;;7.25;4.20;;;;;;;16.87;69.22;101631.94;171988;28;1034;-67
2022/06/16 00:00:55;;;;;;;9.00;4.10;;;;;;;16.87;68.78;101645.13;172037;28;876;-67
2022/06/16 00:01:01;;;;;;;9.40;4.10;;;;;;;16.89;68.99;101627.41;172678;28;832;-67
2022/06/16 00:01:07;;;;;;;8.90;3.95;;;;;;;16.92;69.18;101642.19;172685;28;991;-68
2022/06/16 00:01:12;;;;;;;9.07;3.80;;;;;;;16.90;68.35;101634.38;172640;28;1360;-68
2022/06/16 00:01:18;;;;;;;9.52;3.83;;;;;;;16.82;68.48;101632.19;171722;28;1371;-67
2022/06/16 00:01:23;;;;;;;7.18;3.90;;;;;;;16.80;68.57;101635.84;170821;28;776;-67
2022/06/16 00:01:29;;;;;;;7.00;3.90;;;;;;;16.81;69.02;101640.19;171215;28;911;-67
2022/06/16 00:01:34;;;;;;;8.35;4.00;;;;;;;16.84;69.14;101632.09;171963;28;904;-67
2022/06/16 00:01:40;;;;;;;8.00;4.07;;;;;;;16.85;69.10;101631.16;171971;28;836;-67
2022/06/16 00:01:45;;;;;;;7.50;4.10;;;;;;;16.86;68.93;101632.84;172031;28;869;-67
2022/06/16 00:01:53;;;;;;;6.75;4.00;;;;;;;16.88;68.92;101632.75;171995;28;916;-68
2022/06/16 00:01:59;;;;;;;6.35;3.98;;;;;;;16.90;68.81;101634.38;171955;28;997;-67
2022/06/16 00:02:04;;;;;;;5.45;4.03;;;;;;;16.92;69.19;101627.25;171975;28;700;-67
2022/06/16 00:02:15;;;;;;;5.47;4.03;;;;;;;16.94;68.68;101630.63;171254;28;1035;-67
2022/06/16 00:02:20;;;;;;;5.68;3.92;;;;;;;16.94;68.51;101630.63;171255;28;1144;-68
2022/06/16 00:02:25;;;;;;;6.40;4.00;;;;;;;16.95;68.60;101632.34;171433;28;852;-67
2022/06/16 00:02:31;;;;;;;6.13;4.03;;;;;;;16.95;68.48;101632.34;171177;28;891;-67
2022/06/16 00:02:45;;;;;;;6.45;4.00;;;;;;;16.96;68.37;101638.44;171306;28;899;-67
2022/06/16 00:02:52;;;;;;;6.74;4.09;;;;;;;16.92;68.62;101632.50;171233;28;1489;-68
2022/06/16 00:02:58;;;;;;;6.10;4.00;;;;;;;16.75;69.55;101630.81;171338;28;860;-67
2022/06/16 00:03:07;;;;;;;6.40;4.18;;;;;;;16.64;70.56;101628.81;171344;28;896;-66
2022/06/16 00:03:12;;;;;;;7.30;4.23;;;;;;;16.60;70.52;101629.91;171317;28;1039;-67
2022/06/16 00:03:18;;;;;;;7.03;4.17;;;;;;;16.64;70.41;101634.06;171858;28;911;-67
2022/06/16 00:03:24;;;;;;;7.32;4.20;;;;;;;16.58;72.02;101631.75;172000;28;891;-66
2022/06/16 00:03:29;;;;;;;7.97;4.15;;;;;;;16.48;71.81;101634.06;171989;28;951;-67
2022/06/16 00:03:35;;;;;;;8.10;4.00;;;;;;;16.40;71.93;101634.50;171993;28;777;-67
2022/06/16 00:03:40;;;;;;;8.00;3.97;;;;;;;16.40;71.06;101637.13;171888;28;908;-67
2022/06/16 00:03:46;;;;;;;7.33;3.90;;;;;;;16.46;70.73;101628.88;171299;28;903;-68
2022/06/16 00:03:51;;;;;;;7.27;3.93;;;;;;;16.49;69.88;101630.47;171344;28;849;-67
2022/06/16 00:03:57;;;;;;;6.85;3.95;;;;;;;16.54;70.39;101632.88;171257;28;911;-67
2022/06/16 00:04:02;;;;;;;7.43;4.07;;;;;;;16.57;70.37;101632.72;171302;28;900;-67
2022/06/16 00:04:08;;;;;;;7.17;4.20;;;;;;;16.63;70.03;101627.06;171319;28;920;-68
2022/06/16 00:04:14;;;;;;;7.35;4.22;;;;;;;16.68;69.87;101632.97;171272;28;856;-67
2022/06/16 00:04:20;;;;;;;7.40;4.20;;;;;;;16.70;70.04;101633.72;171249;28;1073;-67
2022/06/16 00:04:27;;;;;;;7.30;4.20;;;;;;;16.73;69.78;101633.53;171313;28;1195;-67
2022/06/16 00:04:34;;;;;;;6.64;4.06;;;;;;;16.78;69.70;101635.06;171995;28;896;-67
2022/06/16 00:04:46;;;;;;;6.18;4.04;;;;;;;16.80;69.57;101639.31;171981;28;1070;-67
2022/06/16 00:04:51;;;;;;;6.15;4.01;;;;;;;16.83;69.57;101633.00;171986;28;1218;-67
2022/06/16 00:04:57;;;;;;;7.13;4.10;;;;;;;16.80;69.22;101633.22;172004;28;825;-69
2022/06/16 00:05:02;;;;;;;7.20;4.20;;;;;;;16.68;69.99;101634.75;171912;28;888;-67
2022/06/16 00:05:11;;;;;;;6.77;4.20;;;;;;;16.58;70.41;101623.88;171922;28;964;-67
2022/06/16 00:05:26;;;;;;;7.20;4.20;;;;;;;16.52;69.06;101632.13;172024;28;974;-67
2022/06/16 00:05:36;;;;;;;6.25;4.16;;;;;;;16.57;69.55;101632.72;171942;28;1261;-67
2022/06/16 00:05:44;;;;;;;6.03;4.20;;;;;;;16.56;70.58;101636.28;171965;28;1062;-67
2022/06/16 00:05:50;;;;;;;6.30;4.25;;;;;;;16.63;69.82;101637.63;172626;28;1026;-68
2022/06/16 00:05:55;;;;;;;6.85;4.25;;;;;;;16.68;69.98;101637.38;172660;28;852;-68
2022/06/16 00:06:00;;;;;;;6.20;4.03;;;;;;;16.70;69.84;101633.72;172665;28;907;-67
2022/06/16 00:06:06;;;;;;;6.05;3.92;;;;;;;16.73;69.33;101637.97;172650;28;828;-67
2022/06/16 00:06:11;;;;;;;5.73;3.90;;;;;;;16.76;69.48;101629.06;172664;28;1093;-68
2022/06/16 00:06:17;;;;;;;5.90;3.90;;;;;;;16.78;69.45;101635.06;172928;28;820;-68
2022/06/16 00:06:22;;;;;;;5.70;3.80;;;;;;;16.79;69.46;101626.22;173329;28;859;-68
2022/06/16 00:06:27;;;;;;;5.80;3.90;;;;;;;16.82;69.12;101626.06;173339;28;856;-68
2022/06/16 00:06:33;;;;;;;5.80;3.90;;;;;;;16.83;69.57;101627.75;172539;28;884;-68
2022/06/16 00:06:38;;;;;;;6.03;4.00;;;;;;;16.84;69.63;101634.75;172643;28;1085;-68
2022/06/16 00:06:44;;;;;;;6.33;3.83;;;;;;;16.85;69.64;101631.16;172649;28;1089;-68
2022/06/16 00:06:50;;;;;;;7.00;3.78;;;;;;;16.85;69.67;101634.66;172692;28;696;-68
2022/06/16 00:06:56;;;;;;;7.82;3.83;;;;;;;16.87;69.51;101626.66;172638;28;970;-66
2022/06/16 00:07:01;;;;;;;7.90;3.85;;;;;;;16.87;69.26;101634.56;172672;28;1083;-67
2022/06/16 00:07:06;;;;;;;7.63;3.80;;;;;;;16.88;69.24;101633.63;172681;28;963;-66
2022/06/16 00:07:15;;;;;;;7.73;3.87;;;;;;;16.86;68.95;101636.34;172669;28;825;-67
2022/06/16 00:07:23;;;;;;;6.49;3.91;;;;;;;16.86;69.26;101632.84;172652;28;1138;-68
2022/06/16 00:07:28;;;;;;;5.74;3.88;;;;;;;16.87;69.15;101637.22;172652;28;934;-66
2022/06/16 00:07:33;;;;;;;5.53;3.80;;;;;;;16.87;69.19;101634.56;172663;28;939;-67
2022/06/16 00:07:40;;;;;;;5.70;3.87;;;;;;;16.86;69.30;101631.06;172639;28;856;-68
2022/06/16 00:07:46;;;;;;;6.03;4.00;;;;;;;16.88;69.35;101632.75;172727;28;947;-66
2022/06/16 00:07:53;;;;;;;6.55;4.03;;;;;;;16.89;69.21;101637.94;172638;28;1022;-67
2022/06/16 00:07:58;;;;;;;6.40;4.07;;;;;;;16.90;69.02;101629.09;172678;28;971;-68
2022/06/16 00:08:07;;;;;;;6.80;4.23;;;;;;;16.91;69.21;101628.19;172649;28;896;-68
2022/06/16 00:08:16;;;;;;;7.20;4.30;;;;;;;16.91;68.88;101633.47;172686;28;848;-68
2022/06/16 00:08:21;;;;;;;7.46;4.21;;;;;;;16.88;68.88;101633.63;171857;28;1384;-68
2022/06/16 00:08:27;;;;;;;7.63;4.33;;;;;;;16.84;68.78;101629.47;171974;28;967;-68
2022/06/16 00:08:32;;;;;;;7.97;4.28;;;;;;;16.82;69.19;101637.47;172356;28;821;-66
2022/06/16 00:08:38;;;;;;;7.67;4.20;;;;;;;16.83;68.84;101633.00;172645;28;828;-67
2022/06/16 00:08:43;;;;;;;7.68;4.18;;;;;;;16.84;69.00;101632.94;172649;28;768;-68
2022/06/16 00:08:48;;;;;;;7.77;4.20;;;;;;;16.87;68.61;101631.94;172694;28;839;-68
2022/06/16 00:08:54;;;;;;;7.80;4.15;;;;;;;16.89;69.10;101637.09;172653;28;916;-68
2022/06/16 00:08:59;;;;;;;7.90;4.10;;;;;;;16.88;68.87;101633.63;171878;28;1816;-66
2022/06/16 00:09:05;;;;;;;7.67;4.10;;;;;;;16.90;68.75;101634.38;172011;28;916;-67
2022/06/16 00:09:11;;;;;;;7.28;4.00;;;;;;;16.90;68.84;101639.66;171159;28;857;-69
2022/06/16 00:09:16;;;;;;;6.68;3.85;;;;;;;16.89;68.93;101637.09;171389;28;818;-68
2022/06/16 00:09:23;;;;;;;6.13;3.75;;;;;;;16.89;69.28;101632.69;171312;28;908;-68
2022/06/16 00:09:28;;;;;;;5.87;3.70;;;;;;;16.90;68.88;101636.19;171333;28;931;-66
2022/06/16 00:09:34;;;;;;;5.70;3.70;;;;;;;16.89;68.97;101635.31;171238;28;950;-68
2022/06/16 00:09:39;;;;;;;5.90;3.77;;;;;;;16.90;68.96;101629.09;171283;28;928;-68
2022/06/16 00:09:45;;;;;;;6.17;3.80;;;;;;;16.91;68.63;101638.72;171292;28;1046;-66
2022/06/16 00:09:50;;;;;;;5.93;3.80;;;;;;;16.92;68.94;101632.50;171316;28;935;-66
2022/06/16 00:09:55;;;;;;;5.50;3.80;;;;;;;16.93;68.65;101634.19;171329;28;955;-67
2022/06/16 00:10:02;;;;;;;5.85;3.85;;;;;;;16.93;68.66;101636.84;171311;28;1034;-66
2022/06/16 00:10:10;;;;;;;5.88;3.80;;;;;;;16.93;68.77;101631.56;171317;28;904;-66
2022/06/16 00:10:18;;;;;;;5.60;3.72;;;;;;;16.90;69.09;101629.09;171305;28;1023;-66
2022/06/16 00:10:24;;;;;;;6.33;4.00;;;;;;;16.78;68.31;101643.84;171998;28;927;-66
2022/06/16 00:10:30;;;;;;;5.82;3.85;;;;;;;16.73;68.64;101633.53;171984;28;914;-66
2022/06/16 00:10:37;;;;;;;5.85;4.00;;;;;;;16.77;69.04;101638.66;171946;28;975;-66
2022/06/16 00:11:16;;;;;;;6.90;4.24;;;;;;;16.79;68.82;101636.75;172738;28;1170;-66
2022/06/16 00:11:22;;;;;;;7.91;4.18;;;;;;;16.68;68.73;101635.59;173309;28;1215;-66
2022/06/16 00:11:27;;;;;;;8.00;4.03;;;;;;;16.69;68.78;101632.03;173320;28;860;-66
2022/06/16 00:11:32;;;;;;;8.40;4.00;;;;;;;16.66;69.52;101637.47;173094;28;1033;-65
2022/06/16 00:11:38;;;;;;;7.75;4.00;;;;;;;16.61;69.32;101634.22;172720;28;915;-66
2022/06/16 00:11:43;;;;;;;7.73;4.10;;;;;;;16.57;69.13;101633.56;172741;28;824;-66
2022/06/16 00:11:49;;;;;;;8.32;4.10;;;;;;;16.61;69.11;101634.22;172771;28;915;-66
2022/06/16 00:11:54;;;;;;;8.17;4.20;;;;;;;16.66;69.02;101636.63;172728;28;843;-66
2022/06/16 00:12:00;;;;;;;8.05;4.22;;;;;;;16.68;69.48;101640.88;172710;28;1029;-66
2022/06/16 00:12:06;;;;;;;9.27;4.30;;;;;;;16.70;69.07;101638.97;172712;28;839;-66
2022/06/16 00:12:11;;;;;;;9.23;4.20;;;;;;;16.73;68.92;101638.81;172714;28;943;-66
2022/06/16 00:12:17;;;;;;;8.65;4.20;;;;;;;16.77;69.33;101638.66;172752;28;836;-67
2022/06/16 00:12:22;;;;;;;8.73;4.13;;;;;;;16.78;68.94;101630.66;172688;28;1046;-68
2022/06/16 00:12:27;;;;;;;9.13;4.13;;;;;;;16.82;69.06;101628.69;172718;28;894;-67
2022/06/16 00:12:33;;;;;;;6.85;4.07;;;;;;;16.81;68.74;101629.63;172548;28;1023;-66
2022/06/16 00:12:39;;;;;;;6.87;4.03;;;;;;;16.82;68.86;101636.59;172669;28;927;-66
2022/06/16 00:12:45;;;;;;;7.30;3.97;;;;;;;16.81;68.80;101629.63;172626;28;959;-66
2022/06/16 00:12:51;;;;;;;6.57;4.00;;;;;;;16.80;69.27;101639.31;172633;28;1046;-66
2022/06/16 00:12:57;;;;;;;6.90;4.00;;;;;;;16.83;68.86;101633.00;172682;28;914;-66
2022/06/16 00:13:04;;;;;;;7.13;3.97;;;;;;;16.84;69.06;101629.47;172673;28;907;-67
2022/06/16 00:13:10;;;;;;;7.12;3.95;;;;;;;16.83;68.85;101627.75;171899;28;1207;-67
2022/06/16 00:13:15;;;;;;;7.00;4.00;;;;;;;16.84;68.67;101630.28;171976;28;907;-66
2022/06/16 00:13:20;;;;;;;6.90;4.07;;;;;;;16.85;69.03;101628.53;171988;28;1046;-66
2022/06/16 00:13:29;;;;;;;6.60;3.95;;;;;;;16.86;68.67;101638.13;171974;28;1038;-66
2022/06/16 00:13:39;;;;;;;6.50;3.97;;;;;;;16.87;68.59;101631.94;171950;28;1033;-67
2022/06/16 00:13:45;;;;;;;6.30;3.90;;;;;;;16.84;68.33;101629.47;171986;28;895;-68
2022/06/16 00:13:51;;;;;;;6.30;3.92;;;;;;;16.69;68.45;101632.03;172029;28;975;-67
2022/06/16 00:13:57;;;;;;;6.20;4.00;;;;;;;16.63;68.89;101634.97;171995;28;970;-66
2022/06/16 00:14:03;;;;;;;6.23;3.97;;;;;;;16.66;69.34;101632.19;171982;28;943;-66
2022/06/16 00:14:10;;;;;;;6.78;4.00;;;;;;;16.69;69.41;101632.03;171989;28;924;-67
2022/06/16 00:14:15;;;;;;;6.34;4.00;;;;;;;16.69;69.52;101629.38;171962;28;896;-67
2022/06/16 00:14:27;;;;;;;6.43;4.00;;;;;;;16.67;69.47;101633.91;172007;28;852;-67
2022/06/16 00:14:33;;;;;;;6.56;4.05;;;;;;;16.73;68.99;101638.81;172499;28;1213;-67
2022/06/16 00:14:38;;;;;;;6.47;4.13;;;;;;;16.69;69.36;101633.78;172698;28;851;-67
2022/06/16 00:14:44;;;;;;;6.60;4.20;;;;;;;16.67;69.20;101633.91;172682;28;828;-67
2022/06/16 00:14:49;;;;;;;6.50;4.20;;;;;;;16.71;69.49;101635.44;172617;28;912;-67
2022/06/16 00:14:55;;;;;;;5.90;4.20;;;;;;;16.73;69.45;101633.53;171905;28;888;-67
2022/06/16 00:15:00;;;;;;;5.87;4.10;;;;;;;16.77;69.17;101638.66;171972;28;1081;-67
2022/06/16 00:15:12;;;;;;;6.10;4.10;;;;;;;16.79;69.14;101626.22;171996;28;1104;-67
2022/06/16 00:15:22;;;;;;;6.56;4.22;;;;;;;16.73;69.44;101632.69;172682;28;1213;-67
2022/06/16 00:15:29;;;;;;;6.68;4.10;;;;;;;16.56;69.82;101629.22;172550;28;1604;-66
2022/06/16 00:15:35;;;;;;;7.36;4.10;;;;;;;16.59;69.59;101630.81;172652;28;974;-66
2022/06/16 00:15:40;;;;;;;7.13;3.97;;;;;;;16.60;69.64;101627.28;171894;28;1711;-67
2022/06/16 00:15:45;;;;;;;6.78;4.00;;;;;;;16.53;69.17;101632.00;171217;28;1473;-67
2022/06/16 00:15:51;;;;;;;7.57;4.07;;;;;;;16.47;69.60;101633.22;171306;28;954;-66
2022/06/16 00:15:58;;;;;;;7.47;4.13;;;;;;;16.51;69.64;101633.91;171325;28;860;-66
2022/06/16 00:16:05;;;;;;;6.52;4.10;;;;;;;16.51;70.69;101638.31;171321;28;891;-66
2022/06/16 00:16:12;;;;;;;6.30;4.00;;;;;;;16.52;70.19;101634.75;171331;28;871;-66
2022/06/16 00:16:19;;;;;;;6.57;3.90;;;;;;;16.56;70.00;101631.03;171372;28;1025;-67
2022/06/16 00:16:25;;;;;;;7.13;3.95;;;;;;;16.61;69.97;101634.22;170531;29;2535;-67
2022/06/16 00:16:30;;;;;;;7.70;3.90;;;;;;;16.59;69.32;101633.47;170628;29;896;-68
2022/06/16 00:16:36;;;;;;;7.97;4.00;;;;;;;16.47;69.78;101633.22;170646;29;1101;-66
2022/06/16 00:16:41;;;;;;;7.75;4.00;;;;;;;16.38;71.08;101633.72;170610;29;915;-66
2022/06/16 00:16:47;;;;;;;7.67;4.07;;;;;;;16.33;70.87;101627.84;170730;29;749;-67
2022/06/16 00:16:54;;;;;;;6.87;4.00;;;;;;;16.37;70.30;101632.03;170872;28;1057;-66
2022/06/16 00:16:59;;;;;;;6.58;4.00;;;;;;;16.39;70.25;101631.94;171270;28;895;-66
2022/06/16 00:17:05;;;;;;;5.88;4.05;;;;;;;16.44;69.92;101641.28;171308;28;856;-66
2022/06/16 00:17:10;;;;;;;6.27;4.10;;;;;;;16.45;70.21;101635.09;170544;29;1406;-66
2022/06/16 00:17:15;;;;;;;6.47;4.10;;;;;;;16.51;70.01;101638.31;170637;29;919;-66
2022/06/16 00:17:21;;;;;;;6.17;4.13;;;;;;;16.53;69.71;101631.19;170636;28;1106;-66
2022/06/16 00:17:26;;;;;;;6.57;4.10;;;;;;;16.56;69.87;101636.28;170576;29;1070;-66
2022/06/16 00:17:32;;;;;;;6.55;4.13;;;;;;;16.59;69.56;101636.94;170585;29;845;-66
2022/06/16 00:17:38;;;;;;;6.43;4.00;;;;;;;16.62;69.36;101635.94;170766;28;883;-67
2022/06/16 00:17:44;;;;;;;6.42;4.00;;;;;;;16.63;69.55;101642.88;171500;28;887;-66
2022/06/16 00:17:50;;;;;;;6.47;4.17;;;;;;;16.63;69.42;101632.34;172005;28;915;-66
2022/06/16 00:17:58;;;;;;;6.57;4.20;;;;;;;16.65;69.26;101635.75;171950;28;1077;-66
2022/06/16 00:18:04;;;;;;;7.00;4.28;;;;;;;16.66;69.58;101642.72;171984;28;1104;-66
2022/06/16 00:18:09;;;;;;;7.36;4.38;;;;;;;16.66;69.58;101636.63;171993;28;961;-66
2022/06/16 00:18:15;;;;;;;6.90;4.37;;;;;;;16.66;69.60;101637.47;171213;28;1086;-66
2022/06/16 00:18:20;;;;;;;6.90;4.20;;;;;;;16.66;69.64;101637.47;171332;28;820;-66
2022/06/16 00:18:26;;;;;;;6.45;4.20;;;;;;;16.68;69.16;101635.59;171872;28;978;-66
2022/06/16 00:18:32;;;;;;;6.20;4.15;;;;;;;16.69;69.29;101639.94;171969;28;1109;-66
2022/06/16 00:18:39;;;;;;;6.03;4.20;;;;;;;16.71;69.19;101640.72;171883;28;855;-66
2022/06/16 00:18:45;;;;;;;5.48;4.12;;;;;;;16.72;68.97;101626.59;171964;28;1075;-66
2022/06/16 00:18:51;;;;;;;6.15;4.28;;;;;;;16.72;69.09;101631.84;172017;28;891;-66
2022/06/16 00:18:56;;;;;;;7.90;4.30;;;;;;;16.72;68.80;101637.13;171910;28;1089;-67
2022/06/16 00:19:02;;;;;;;7.60;4.30;;;;;;;16.70;69.27;101636.34;171913;28;824;-67
2022/06/16 00:19:08;;;;;;;7.47;4.30;;;;;;;16.64;69.91;101638.47;172224;28;962;-66
2022/06/16 00:19:14;;;;;;;8.00;4.30;;;;;;;16.57;69.24;101632.72;172658;28;848;-67
2022/06/16 00:19:19;;;;;;;7.80;4.33;;;;;;;16.53;69.34;101637.28;172712;28;831;-67
2022/06/16 00:19:24;;;;;;;6.55;4.40;;;;;;;16.54;69.49;101640.78;172662;28;927;-67
2022/06/16 00:19:30;;;;;;;7.00;4.40;;;;;;;16.55;69.56;101635.44;172594;28;1958;-67
2022/06/16 00:19:35;;;;;;;7.03;4.45;;;;;;;16.57;69.23;101637.97;171898;28;891;-66
2022/06/16 00:19:41;;;;;;;7.17;4.53;;;;;;;16.59;69.02;101636.94;171962;28;1025;-67
2022/06/16 00:19:46;;;;;;;7.03;4.60;;;;;;;16.63;69.49;101637.63;171986;28;856;-67
2022/06/16 00:19:52;;;;;;;6.55;4.45;;;;;;;16.66;69.31;101636.63;171980;28;1105;-67
2022/06/16 00:19:57;;;;;;;6.65;4.35;;;;;;;16.67;69.19;101638.31;171222;28;1653;-67
2022/06/16 00:20:05;;;;;;;6.27;4.27;;;;;;;16.68;69.31;101638.22;171280;28;840;-67
2022/06/16 00:20:11;;;;;;;6.03;4.10;;;;;;;16.68;69.18;101635.59;171312;28;962;-67
2022/06/16 00:20:17;;;;;;;6.40;4.00;;;;;;;16.67;69.02;101639.19;172043;28;942;-67
2022/06/16 00:20:24;;;;;;;6.68;4.00;;;;;;;16.67;69.04;101636.53;172002;28;828;-67
2022/06/16 00:20:29;;;;;;;6.37;4.10;;;;;;;16.69;68.85;101631.16;171928;28;1340;-67
2022/06/16 00:20:34;;;;;;;7.15;4.20;;;;;;;16.70;68.95;101632.88;172000;28;907;-67
2022/06/16 00:20:40;;;;;;;7.77;4.10;;;;;;;16.71;69.04;101630.16;172003;28;844;-67
2022/06/16 00:20:45;;;;;;;7.35;4.13;;;;;;;16.72;69.04;101634.50;171982;28;907;-67
2022/06/16 00:20:51;;;;;;;7.57;4.20;;;;;;;16.68;69.71;101630.31;171991;28;939;-67
2022/06/16 00:20:56;;;;;;;7.95;4.28;;;;;;;16.61;70.13;101636.88;172012;28;840;-67
2022/06/16 00:21:03;;;;;;;7.90;4.10;;;;;;;16.53;69.64;101641.72;171913;28;971;-66
2022/06/16 00:21:10;;;;;;;7.03;4.10;;;;;;;16.54;69.72;101638.13;171880;28;859;-67
2022/06/16 00:21:17;;;;;;;6.76;4.12;;;;;;;16.58;69.64;101632.63;171120;28;1579;-66
2022/06/16 00:21:22;;;;;;;6.13;4.03;;;;;;;16.61;69.80;101634.22;171326;28;871;-66
2022/06/16 00:21:28;;;;;;;5.90;3.97;;;;;;;16.63;69.54;101634.97;171302;28;944;-66
2022/06/16 00:21:34;;;;;;;6.40;4.10;;;;;;;16.62;69.73;101635.94;171547;28;844;-66
2022/06/16 00:21:40;;;;;;;7.63;4.40;;;;;;;16.57;68.88;101635.34;171945;28;907;-66
2022/06/16 00:21:45;;;;;;;7.40;4.40;;;;;;;16.59;69.35;101638.72;171968;28;930;-66
2022/06/16 00:21:51;;;;;;;6.83;4.30;;;;;;;16.58;69.26;101635.25;172013;28;840;-66
2022/06/16 00:21:56;;;;;;;7.07;4.32;;;;;;;16.50;69.78;101640.09;172334;28;836;-66
2022/06/16 00:22:02;;;;;;;7.17;4.30;;;;;;;16.51;70.15;101639.16;172659;28;848;-66
2022/06/16 00:22:07;;;;;;;6.22;4.20;;;;;;;16.54;70.19;101633.72;172632;28;864;-66
2022/06/16 00:22:13;;;;;;;5.47;4.07;;;;;;;16.57;69.76;101633.56;172660;28;852;-67
2022/06/16 00:22:19;;;;;;;6.10;4.07;;;;;;;16.60;69.97;101632.53;172663;28;1025;-67
2022/06/16 00:22:24;;;;;;;6.55;4.07;;;;;;;16.62;69.88;101638.56;172664;28;966;-67
2022/06/16 00:22:32;;;;;;;5.83;3.90;;;;;;;16.63;69.95;101637.63;172674;28;919;-67
2022/06/16 00:22:38;;;;;;;6.20;3.87;;;;;;;16.55;70.19;101629.28;172659;28;950;-66
2022/06/16 00:22:43;;;;;;;7.45;3.83;;;;;;;16.52;69.93;101637.38;172658;28;1002;-67
2022/06/16 00:22:49;;;;;;;7.03;3.80;;;;;;;16.55;70.15;101629.28;172694;28;1076;-66
2022/06/16 00:22:55;;;;;;;6.45;3.78;;;;;;;16.57;70.09;101632.72;172651;28;1450;-67
2022/06/16 00:23:00;;;;;;;7.03;3.95;;;;;;;16.55;70.46;101635.44;171941;28;943;-67
2022/06/16 00:23:06;;;;;;;7.17;3.97;;;;;;;16.54;69.94;101636.38;172005;28;844;-67
2022/06/16 00:23:11;;;;;;;6.07;3.92;;;;;;;16.53;69.51;101636.44;171978;28;860;-66
2022/06/16 00:23:17;;;;;;;6.70;4.10;;;;;;;16.53;70.05;101633.81;172625;28;824;-66
2022/06/16 00:23:22;;;;;;;7.40;4.30;;;;;;;16.55;69.75;101631.94;172644;28;1021;-66
2022/06/16 00:23:28;;;;;;;7.77;4.30;;;;;;;16.57;69.80;101637.97;172595;28;907;-67
2022/06/16 00:23:34;;;;;;;8.13;4.32;;;;;;;16.60;69.61;101637.81;172639;28;981;-67
2022/06/16 00:23:41;;;;;;;8.30;4.40;;;;;;;16.63;70.00;101632.34;171871;28;1158;-67
2022/06/16 00:23:46;;;;;;;8.32;4.40;;;;;;;16.64;69.55;101636.72;171969;28;954;-67
2022/06/16 00:23:52;;;;;;;7.97;4.30;;;;;;;16.65;69.28;101635.75;171922;28;879;-67
2022/06/16 00:23:57;;;;;;;7.70;4.40;;;;;;;16.66;69.36;101634.81;171933;28;817;-67
2022/06/16 00:24:03;;;;;;;7.47;4.50;;;;;;;16.67;69.08;101640.94;171997;28;1093;-67
2022/06/16 00:24:08;;;;;;;7.32;4.40;;;;;;;16.68;69.23;101637.38;171974;28;848;-67
2022/06/16 00:24:14;;;;;;;7.47;4.50;;;;;;;16.69;69.43;101639.94;171973;28;836;-67
2022/06/16 00:24:26;;;;;;;7.28;4.47;;;;;;;16.70;69.51;101632.88;172046;28;876;-67
2022/06/16 00:24:32;;;;;;;7.53;4.26;;;;;;;16.68;69.24;101634.75;171966;28;1219;-66
2022/06/16 00:24:37;;;;;;;7.15;4.20;;;;;;;16.66;69.42;101632.19;171979;28;923;-66
2022/06/16 00:24:42;;;;;;;6.53;4.10;;;;;;;16.66;69.57;101632.19;171984;28;954;-66
2022/06/16 00:24:48;;;;;;;6.30;4.07;;;;;;;16.67;69.34;101633.91;171991;28;1034;-66
2022/06/16 00:24:54;;;;;;;5.97;4.20;;;;;;;16.68;69.48;101632.97;171942;28;986;-66
2022/06/16 00:24:59;;;;;;;6.70;4.20;;;;;;;16.69;69.69;101633.78;172336;28;1038;-68
2022/06/16 00:25:07;;;;;;;6.77;4.20;;;;;;;16.70;69.54;101632.88;172650;28;832;-66
2022/06/16 00:25:14;;;;;;;7.23;4.30;;;;;;;16.70;69.50;101636.34;172635;28;875;-66
2022/06/16 00:25:20;;;;;;;7.90;4.34;;;;;;;16.69;69.21;101646.97;172617;28;931;-66
2022/06/16 00:25:25;;;;;;;7.53;4.25;;;;;;;16.69;69.43;101642.56;172650;28;880;-66
2022/06/16 00:25:32;;;;;;;7.03;4.23;;;;;;;16.67;69.24;101639.19;172664;28;894;-66
2022/06/16 00:25:37;;;;;;;8.44;4.32;;;;;;;16.64;68.31;101634.06;172840;28;947;-67
2022/06/16 00:25:43;;;;;;;8.80;4.30;;;;;;;16.62;68.23;101635.09;173335;28;1073;-66
2022/06/16 00:25:49;;;;;;;8.83;4.37;;;;;;;16.61;68.59;101634.22;173262;28;1282;-66
2022/06/16 00:25:54;;;;;;;8.82;4.38;;;;;;;16.62;68.84;101633.28;172625;28;843;-66
2022/06/16 00:26:00;;;;;;;8.50;4.30;;;;;;;16.65;69.07;101640.16;172677;28;957;-66
2022/06/16 00:26:15;;;;;;;7.32;4.18;;;;;;;16.66;68.90;101636.63;172670;28;1033;-66
2022/06/16 00:26:26;;;;;;;6.51;4.07;;;;;;;16.69;68.86;101636.44;172748;28;1228;-67
2022/06/16 00:26:31;;;;;;;7.08;4.08;;;;;;;16.70;69.00;101635.50;172683;28;1250;-66
2022/06/16 00:26:37;;;;;;;7.07;4.10;;;;;;;16.69;69.11;101637.28;172697;28;946;-66
2022/06/16 00:26:42;;;;;;;6.43;3.95;;;;;;;16.70;68.58;101633.72;172680;28;878;-67
2022/06/16 00:26:48;;;;;;;6.60;4.00;;;;;;;16.70;68.76;101633.72;172735;28;843;-67
2022/06/16 00:26:55;;;;;;;6.30;3.90;;;;;;;16.71;68.53;101640.72;172578;28;900;-67
2022/06/16 00:27:01;;;;;;;6.07;4.00;;;;;;;16.71;68.48;101640.72;172665;28;954;-66
2022/06/16 00:27:07;;;;;;;6.07;4.00;;;;;;;16.72;68.67;101639.75;172646;28;927;-66
2022/06/16 00:27:13;;;;;;;6.32;4.07;;;;;;;16.71;68.22;101632.81;172616;28;994;-66
2022/06/16 00:27:18;;;;;;;6.60;4.13;;;;;;;16.71;68.52;101635.44;172558;28;851;-66
2022/06/16 00:27:23;;;;;;;6.33;4.17;;;;;;;16.71;68.37;101643.34;172625;28;899;-68
2022/06/16 00:27:29;;;;;;;5.90;4.20;;;;;;;16.71;68.76;101635.44;172626;28;1224;-66
2022/06/16 00:27:35;;;;;;;6.57;4.30;;;;;;;16.72;68.44;101642.41;172661;28;860;-66
2022/06/16 00:27:42;;;;;;;7.18;4.30;;;;;;;16.70;68.72;101638.16;172645;28;923;-66
2022/06/16 00:27:47;;;;;;;7.22;4.38;;;;;;;16.68;68.82;101634.75;172616;28;1070;-66
2022/06/16 00:27:53;;;;;;;7.38;4.40;;;;;;;16.69;68.93;101637.28;172653;28;931;-66
2022/06/16 00:27:58;;;;;;;7.43;4.47;;;;;;;16.69;69.03;101632.03;172659;28;811;-66
2022/06/16 00:28:04;;;;;;;6.80;4.50;;;;;;;16.70;68.51;101638.97;172634;28;1022;-66
2022/06/16 00:28:10;;;;;;;6.47;4.50;;;;;;;16.70;68.62;101633.72;172601;28;931;-66
2022/06/16 00:28:16;;;;;;;7.23;4.50;;;;;;;16.70;68.46;101636.34;172636;28;1044;-66
2022/06/16 00:28:22;;;;;;;7.47;4.53;;;;;;;16.71;68.41;101634.56;172681;28;1030;-66
2022/06/16 00:28:27;;;;;;;7.90;4.57;;;;;;;16.71;68.87;101640.72;172664;28;997;-66
2022/06/16 00:28:32;;;;;;;7.67;4.50;;;;;;;16.67;68.90;101633.91;172610;28;1095;-66
2022/06/16 00:28:40;;;;;;;8.30;4.60;;;;;;;16.61;69.16;101639.50;172646;28;949;-66
2022/06/16 00:28:47;;;;;;;7.17;4.48;;;;;;;16.57;69.23;101637.97;172339;28;954;-66
2022/06/16 00:28:53;;;;;;;7.97;4.45;;;;;;;16.51;70.19;101635.66;172312;28;1053;-66
2022/06/16 00:28:58;;;;;;;7.35;4.38;;;;;;;16.50;69.96;101637.47;171908;28;1053;-66
2022/06/16 00:29:04;;;;;;;7.50;4.40;;;;;;;16.52;70.03;101634.75;171979;28;868;-66
2022/06/16 00:29:09;;;;;;;6.78;4.20;;;;;;;16.54;69.93;101635.50;171944;28;836;-66
2022/06/16 00:29:14;;;;;;;6.63;4.20;;;;;;;16.55;69.98;101638.06;171892;28;1499;-66
2022/06/16 00:29:20;;;;;;;5.32;4.10;;;;;;;16.56;69.81;101636.28;171992;28;920;-66
2022/06/16 00:29:26;;;;;;;5.03;4.00;;;;;;;16.58;69.50;101639.66;171894;28;1082;-66
2022/06/16 00:29:33;;;;;;;4.93;3.95;;;;;;;16.59;69.54;101636.09;171974;28;855;-66
2022/06/16 00:29:38;;;;;;;5.02;3.98;;;;;;;16.62;69.78;101635.09;172006;28;941;-66
2022/06/16 00:29:44;;;;;;;5.25;3.97;;;;;;;16.62;69.55;101641.19;171689;28;871;-66
2022/06/16 00:29:49;;;;;;;5.60;3.90;;;;;;;16.63;69.29;101640.25;171247;28;1745;-66
2022/06/16 00:29:55;;;;;;;6.45;4.13;;;;;;;16.64;69.57;101636.72;171263;28;1027;-66
2022/06/16 00:30:00;;;;;;;6.50;4.13;;;;;;;16.65;69.22;101645.44;171300;28;983;-66
2022/06/16 00:30:09;;;;;;;7.22;4.10;;;;;;;16.64;69.51;101639.34;171311;28;935;-66
2022/06/16 00:30:14;;;;;;;8.42;4.30;;;;;;;16.51;71.83;101633.91;171274;28;947;-66